CPA319 VHHH-ZSPD
Flight info
| Callsign | CPA319 |
|---|---|
| Flight time | 1h 44m |
| Altitude | 39000 |
| Route | LEKEN1C LEKEN V601 DOTMI/K0911S1130 A470 LJG B221 SHZ W58 BK BK91A |
| Aircraft | A359/H-SDE2E3GHIJ3J4J5LM1ORWXY/LB1D1 |
Departure
| Time | 2026-04-30 06:07 |
|---|---|
| Airport | Hong Kong International Airport (VHHH) |
Arrival
| Time | 2026-04-30 07:51 |
|---|---|
| Airport | Shanghai Pudong International Airport (ZSPD) |
| Time | Latitude | Longitude | Altitude | Speed | Heading |
|---|---|---|---|---|---|
| 2026-04-30 05:43 | 22.31298 | 113.92971 | 43 ft | 0 kts | 340° |
| 2026-04-30 05:53 | 22.31297 | 113.92971 | 43 ft | 1 kts | 340° |
| 2026-04-30 05:53 | 22.31283 | 113.92976 | 42 ft | 3 kts | 342° |
| 2026-04-30 05:54 | 22.31263 | 113.92983 | 40 ft | 3 kts | 341° |
| 2026-04-30 05:54 | 22.31244 | 113.92990 | 39 ft | 3 kts | 335° |
| 2026-04-30 05:54 | 22.31228 | 113.92999 | 40 ft | 3 kts | 317° |
| 2026-04-30 05:54 | 22.31219 | 113.93008 | 40 ft | 3 kts | 282° |
| 2026-04-30 05:55 | 22.31216 | 113.93009 | 39 ft | 2 kts | 250° |
| 2026-04-30 05:55 | 22.31221 | 113.93022 | 39 ft | 3 kts | 251° |
| 2026-04-30 05:55 | 22.31227 | 113.93043 | 40 ft | 3 kts | 253° |
| 2026-04-30 05:55 | 22.31233 | 113.93063 | 40 ft | 2 kts | 249° |
| 2026-04-30 05:56 | 22.31235 | 113.93070 | 40 ft | 0 kts | 248° |
| 2026-04-30 05:58 | 22.31224 | 113.93038 | 40 ft | 15 kts | 250° |
| 2026-04-30 05:58 | 22.31182 | 113.92917 | 43 ft | 18 kts | 246° |
| 2026-04-30 05:58 | 22.31083 | 113.92840 | 43 ft | 19 kts | 207° |
| 2026-04-30 05:58 | 22.30960 | 113.92775 | 42 ft | 21 kts | 204° |
| 2026-04-30 05:59 | 22.30836 | 113.92689 | 43 ft | 22 kts | 244° |
| 2026-04-30 05:59 | 22.30788 | 113.92550 | 43 ft | 19 kts | 256° |
| 2026-04-30 05:59 | 22.30745 | 113.92411 | 43 ft | 20 kts | 251° |
| 2026-04-30 05:59 | 22.30695 | 113.92259 | 43 ft | 22 kts | 250° |
| 2026-04-30 06:00 | 22.30646 | 113.92102 | 43 ft | 23 kts | 251° |
| 2026-04-30 06:00 | 22.30592 | 113.91934 | 43 ft | 25 kts | 251° |
| 2026-04-30 06:00 | 22.30533 | 113.91754 | 43 ft | 26 kts | 250° |
| 2026-04-30 06:00 | 22.30555 | 113.91642 | 43 ft | 13 kts | 330° |
| 2026-04-30 06:01 | 22.30646 | 113.91605 | 43 ft | 15 kts | 340° |
| 2026-04-30 06:01 | 22.30753 | 113.91563 | 43 ft | 17 kts | 340° |
| 2026-04-30 06:01 | 22.30871 | 113.91521 | 43 ft | 19 kts | 342° |
| 2026-04-30 06:01 | 22.30999 | 113.91472 | 43 ft | 20 kts | 340° |
| 2026-04-30 06:02 | 22.31136 | 113.91420 | 43 ft | 22 kts | 340° |
| 2026-04-30 06:02 | 22.31283 | 113.91364 | 43 ft | 23 kts | 340° |
| 2026-04-30 06:02 | 22.31383 | 113.91292 | 44 ft | 14 kts | 280° |
| 2026-04-30 06:02 | 22.31360 | 113.91189 | 44 ft | 15 kts | 251° |
| 2026-04-30 06:03 | 22.31323 | 113.91070 | 44 ft | 18 kts | 251° |
| 2026-04-30 06:03 | 22.31280 | 113.90934 | 44 ft | 20 kts | 250° |
| 2026-04-30 06:03 | 22.31231 | 113.90782 | 43 ft | 22 kts | 251° |
| 2026-04-30 06:03 | 22.31179 | 113.90616 | 43 ft | 24 kts | 251° |
| 2026-04-30 06:04 | 22.31122 | 113.90438 | 43 ft | 26 kts | 251° |
| 2026-04-30 06:04 | 22.31059 | 113.90255 | 43 ft | 27 kts | 250° |
| 2026-04-30 06:04 | 22.30999 | 113.90067 | 43 ft | 27 kts | 251° |
| 2026-04-30 06:05 | 22.30937 | 113.89830 | 43 ft | 5 kts | 282° |
| 2026-04-30 06:05 | 22.30954 | 113.89808 | 43 ft | 0 kts | 327° |
| 2026-04-30 06:06 | 22.31000 | 113.89788 | 43 ft | 15 kts | 338° |
| 2026-04-30 06:06 | 22.31090 | 113.89780 | 43 ft | 9 kts | 33° |
| 2026-04-30 06:06 | 22.31104 | 113.89821 | 43 ft | 0 kts | 74° |
| 2026-04-30 06:07 | 22.31110 | 113.89841 | 43 ft | 21 kts | 74° |
| 2026-04-30 06:07 | 22.31249 | 113.90273 | 42 ft | 98 kts | 71° |
| 2026-04-30 06:07 | 22.31547 | 113.91195 | 46 ft | 160 kts | 70° |
| 2026-04-30 06:07 | 22.31916 | 113.92415 | 700 ft | 164 kts | 71° |
| 2026-04-30 06:08 | 22.32234 | 113.93552 | 1799 ft | 159 kts | 71° |
| 2026-04-30 06:08 | 22.32514 | 113.94709 | 2547 ft | 160 kts | 73° |
| 2026-04-30 06:08 | 22.32898 | 113.95912 | 2910 ft | 181 kts | 65° |
| 2026-04-30 06:08 | 22.33345 | 113.97282 | 3277 ft | 204 kts | 72° |
| 2026-04-30 06:09 | 22.33672 | 113.98852 | 3728 ft | 224 kts | 76° |
| 2026-04-30 06:09 | 22.33821 | 114.00558 | 4275 ft | 239 kts | 91° |
| 2026-04-30 06:09 | 22.33448 | 114.02336 | 4950 ft | 247 kts | 115° |
| 2026-04-30 06:09 | 22.32472 | 114.03860 | 5790 ft | 248 kts | 137° |
| 2026-04-30 06:10 | 22.31092 | 114.04974 | 6661 ft | 249 kts | 152° |
| 2026-04-30 06:10 | 22.29594 | 114.05934 | 7476 ft | 253 kts | 153° |
| 2026-04-30 06:10 | 22.28065 | 114.06897 | 8322 ft | 257 kts | 153° |
| 2026-04-30 06:10 | 22.26515 | 114.07883 | 9192 ft | 260 kts | 153° |
| 2026-04-30 06:11 | 22.24851 | 114.08622 | 9979 ft | 259 kts | 174° |
| 2026-04-30 06:11 | 22.24041 | 114.08720 | 10322 ft | 257 kts | 182° |
| 2026-04-30 06:11 | 22.23005 | 114.08737 | 10644 ft | 259 kts | 185° |
| 2026-04-30 06:12 | 22.21128 | 114.08695 | 11009 ft | 280 kts | 186° |
| 2026-04-30 06:12 | 22.19104 | 114.08680 | 11371 ft | 303 kts | 182° |
| 2026-04-30 06:12 | 22.16959 | 114.09199 | 11701 ft | 333 kts | 159° |
| 2026-04-30 06:12 | 22.15040 | 114.10755 | 12030 ft | 360 kts | 133° |
| 2026-04-30 06:13 | 22.13690 | 114.13114 | 12382 ft | 380 kts | 117° |
| 2026-04-30 06:13 | 22.12538 | 114.15727 | 12856 ft | 391 kts | 117° |
| 2026-04-30 06:13 | 22.11357 | 114.18368 | 13428 ft | 397 kts | 118° |
| 2026-04-30 06:13 | 22.11321 | 114.18446 | 13445 ft | 397 kts | 118° |
| 2026-04-30 06:14 | 22.10522 | 114.20189 | 13823 ft | 401 kts | 118° |
| 2026-04-30 06:14 | 22.09274 | 114.22870 | 14358 ft | 406 kts | 118° |
| 2026-04-30 06:14 | 22.07868 | 114.25521 | 14901 ft | 408 kts | 128° |
| 2026-04-30 06:14 | 22.05893 | 114.27684 | 15434 ft | 406 kts | 145° |
| 2026-04-30 06:15 | 22.03622 | 114.29507 | 16010 ft | 408 kts | 147° |
| 2026-04-30 06:15 | 22.01307 | 114.31303 | 16571 ft | 412 kts | 147° |
| 2026-04-30 06:15 | 21.99026 | 114.33205 | 17106 ft | 418 kts | 140° |
| 2026-04-30 06:15 | 21.97188 | 114.35664 | 17671 ft | 427 kts | 121° |
| 2026-04-30 06:16 | 21.96137 | 114.38677 | 18216 ft | 434 kts | 102° |
| 2026-04-30 06:16 | 21.95946 | 114.41933 | 18699 ft | 438 kts | 88° |
| 2026-04-30 06:16 | 21.96116 | 114.45225 | 19172 ft | 441 kts | 86° |
| 2026-04-30 06:16 | 21.96293 | 114.48497 | 19654 ft | 444 kts | 87° |
| 2026-04-30 06:17 | 21.96414 | 114.51842 | 20124 ft | 448 kts | 90° |
| 2026-04-30 06:17 | 21.96094 | 114.55175 | 20619 ft | 449 kts | 102° |
| 2026-04-30 06:17 | 21.95426 | 114.58479 | 21120 ft | 452 kts | 104° |
| 2026-04-30 06:17 | 21.94708 | 114.61790 | 21617 ft | 455 kts | 104° |
| 2026-04-30 06:18 | 21.93987 | 114.65116 | 22093 ft | 458 kts | 104° |
| 2026-04-30 06:18 | 21.93263 | 114.68469 | 22577 ft | 462 kts | 104° |
| 2026-04-30 06:18 | 21.92535 | 114.71852 | 23052 ft | 465 kts | 104° |
| 2026-04-30 06:18 | 21.91802 | 114.75259 | 23514 ft | 468 kts | 104° |
| 2026-04-30 06:19 | 21.91065 | 114.78686 | 23914 ft | 471 kts | 104° |
| 2026-04-30 06:19 | 21.90324 | 114.82132 | 24315 ft | 474 kts | 104° |
| 2026-04-30 06:19 | 21.89577 | 114.85603 | 24737 ft | 478 kts | 104° |
| 2026-04-30 06:19 | 21.88844 | 114.89104 | 25177 ft | 481 kts | 102° |
| 2026-04-30 06:20 | 21.88446 | 114.92692 | 25635 ft | 485 kts | 92° |
| 2026-04-30 06:20 | 21.88410 | 114.96336 | 26107 ft | 488 kts | 90° |
| 2026-04-30 06:20 | 21.88500 | 115.00004 | 26590 ft | 492 kts | 88° |
| 2026-04-30 06:20 | 21.88648 | 115.03707 | 27046 ft | 495 kts | 88° |
| 2026-04-30 06:21 | 21.88810 | 115.07423 | 27525 ft | 499 kts | 88° |
| 2026-04-30 06:21 | 21.88965 | 115.11162 | 27987 ft | 502 kts | 88° |
| 2026-04-30 06:21 | 21.89108 | 115.14938 | 28446 ft | 506 kts | 88° |
| 2026-04-30 06:21 | 21.89237 | 115.18687 | 28892 ft | 509 kts | 88° |
| 2026-04-30 06:22 | 21.89359 | 115.22502 | 29333 ft | 512 kts | 88° |
| 2026-04-30 06:22 | 21.89477 | 115.26351 | 29773 ft | 516 kts | 89° |
| 2026-04-30 06:22 | 21.89593 | 115.30225 | 30164 ft | 519 kts | 89° |
| 2026-04-30 06:22 | 21.89708 | 115.34129 | 30508 ft | 523 kts | 89° |
| 2026-04-30 06:23 | 21.89823 | 115.38064 | 30840 ft | 526 kts | 89° |
| 2026-04-30 06:23 | 21.89939 | 115.42030 | 31173 ft | 529 kts | 89° |
| 2026-04-30 06:23 | 21.90054 | 115.45952 | 31500 ft | 532 kts | 89° |
| 2026-04-30 06:23 | 21.90170 | 115.49948 | 31808 ft | 535 kts | 89° |
| 2026-04-30 06:24 | 21.90286 | 115.53968 | 32125 ft | 537 kts | 89° |
| 2026-04-30 06:24 | 21.90401 | 115.58002 | 32429 ft | 540 kts | 89° |
| 2026-04-30 06:24 | 21.90642 | 115.62049 | 32723 ft | 543 kts | 83° |
| 2026-04-30 06:24 | 21.91284 | 115.66072 | 33091 ft | 543 kts | 79° |
| 2026-04-30 06:25 | 21.92036 | 115.70059 | 33525 ft | 542 kts | 78° |
| 2026-04-30 06:25 | 21.92832 | 115.74033 | 33946 ft | 542 kts | 78° |
| 2026-04-30 06:25 | 21.93644 | 115.77991 | 34307 ft | 541 kts | 78° |
| 2026-04-30 06:25 | 21.94450 | 115.81893 | 34697 ft | 540 kts | 78° |
| 2026-04-30 06:26 | 21.95263 | 115.85845 | 35085 ft | 539 kts | 78° |
| 2026-04-30 06:26 | 21.96068 | 115.89784 | 35443 ft | 538 kts | 78° |
| 2026-04-30 06:26 | 21.96866 | 115.93715 | 35812 ft | 537 kts | 78° |
| 2026-04-30 06:26 | 21.97661 | 115.97655 | 36148 ft | 536 kts | 78° |
| 2026-04-30 06:27 | 21.98452 | 116.01584 | 36488 ft | 536 kts | 78° |
| 2026-04-30 06:27 | 21.99248 | 116.05508 | 36810 ft | 536 kts | 77° |
| 2026-04-30 06:27 | 22.00314 | 116.09296 | 37125 ft | 534 kts | 68° |
| 2026-04-30 06:27 | 22.01912 | 116.12902 | 37455 ft | 531 kts | 58° |
| 2026-04-30 06:28 | 22.04029 | 116.16147 | 37773 ft | 527 kts | 47° |
| 2026-04-30 06:28 | 22.06619 | 116.18929 | 38075 ft | 522 kts | 36° |
| 2026-04-30 06:28 | 22.09589 | 116.21158 | 38376 ft | 516 kts | 25° |
| 2026-04-30 06:28 | 22.12827 | 116.22779 | 38682 ft | 510 kts | 15° |
| 2026-04-30 06:29 | 22.16185 | 116.23769 | 38910 ft | 503 kts | 5° |
| 2026-04-30 06:29 | 22.19651 | 116.24153 | 39079 ft | 497 kts | 356° |
| 2026-04-30 06:29 | 22.23072 | 116.23931 | 39120 ft | 489 kts | 346° |
| 2026-04-30 06:30 | 22.29452 | 116.21782 | 39125 ft | 475 kts | 328° |
| 2026-04-30 06:30 | 22.35555 | 116.18938 | 39123 ft | 483 kts | 339° |
| 2026-04-30 06:31 | 22.42251 | 116.17791 | 39129 ft | 492 kts | 351° |
| 2026-04-30 06:31 | 22.49076 | 116.17480 | 39132 ft | 495 kts | 354° |
| 2026-04-30 06:32 | 22.55966 | 116.17308 | 39134 ft | 495 kts | 354° |
| 2026-04-30 06:32 | 22.62860 | 116.17121 | 39131 ft | 495 kts | 353° |
| 2026-04-30 06:33 | 22.69780 | 116.17699 | 39133 ft | 505 kts | 8° |
| 2026-04-30 06:33 | 22.73152 | 116.18847 | 39136 ft | 511 kts | 19° |
| 2026-04-30 06:33 | 22.76327 | 116.20631 | 39137 ft | 517 kts | 30° |
| 2026-04-30 06:34 | 22.82148 | 116.25193 | 39142 ft | 521 kts | 34° |
| 2026-04-30 06:34 | 22.87866 | 116.30021 | 39142 ft | 522 kts | 35° |
| 2026-04-30 06:35 | 22.93600 | 116.34861 | 39144 ft | 522 kts | 34° |
| 2026-04-30 06:35 | 22.99360 | 116.39662 | 39145 ft | 522 kts | 34° |
| 2026-04-30 06:36 | 23.04180 | 116.43638 | 39144 ft | 522 kts | 34° |
| 2026-04-30 06:36 | 23.09971 | 116.48414 | 39144 ft | 522 kts | 34° |
| 2026-04-30 06:37 | 23.16696 | 116.53975 | 39148 ft | 522 kts | 34° |
| 2026-04-30 06:37 | 23.21543 | 116.57992 | 39147 ft | 523 kts | 34° |
| 2026-04-30 06:38 | 23.27326 | 116.62791 | 39151 ft | 523 kts | 34° |
| 2026-04-30 06:38 | 23.33078 | 116.67568 | 39149 ft | 523 kts | 34° |
| 2026-04-30 06:39 | 23.38862 | 116.72377 | 39149 ft | 523 kts | 34° |
| 2026-04-30 06:39 | 23.44524 | 116.77375 | 39155 ft | 527 kts | 42° |
| 2026-04-30 06:40 | 23.49692 | 116.83041 | 39151 ft | 528 kts | 43° |
| 2026-04-30 06:40 | 23.54783 | 116.88829 | 39151 ft | 528 kts | 44° |
| 2026-04-30 06:41 | 23.59856 | 116.94625 | 39150 ft | 528 kts | 44° |
| 2026-04-30 06:41 | 23.64907 | 117.00385 | 39153 ft | 528 kts | 44° |
| 2026-04-30 06:42 | 23.70001 | 117.06187 | 39153 ft | 529 kts | 44° |
| 2026-04-30 06:42 | 23.75092 | 117.11990 | 39153 ft | 529 kts | 44° |
| 2026-04-30 06:43 | 23.80291 | 117.17666 | 39154 ft | 527 kts | 39° |
| 2026-04-30 06:43 | 23.85805 | 117.22914 | 39152 ft | 527 kts | 37° |
| 2026-04-30 06:44 | 23.91364 | 117.28158 | 39157 ft | 528 kts | 38° |
| 2026-04-30 06:44 | 23.96873 | 117.33480 | 39157 ft | 528 kts | 39° |
| 2026-04-30 06:45 | 24.02360 | 117.38853 | 39153 ft | 529 kts | 39° |
| 2026-04-30 06:45 | 24.07807 | 117.44201 | 39162 ft | 529 kts | 39° |
| 2026-04-30 06:46 | 24.13272 | 117.49620 | 39157 ft | 531 kts | 42° |
| 2026-04-30 06:46 | 24.18360 | 117.55510 | 39159 ft | 532 kts | 45° |
| 2026-04-30 06:47 | 24.23349 | 117.61493 | 39154 ft | 532 kts | 45° |
| 2026-04-30 06:47 | 24.28330 | 117.67503 | 39149 ft | 532 kts | 45° |
| 2026-04-30 06:48 | 24.33315 | 117.73507 | 39154 ft | 532 kts | 45° |
| 2026-04-30 06:48 | 24.38301 | 117.79512 | 39156 ft | 532 kts | 45° |
| 2026-04-30 06:49 | 24.43047 | 117.85232 | 39156 ft | 533 kts | 45° |
| 2026-04-30 06:49 | 24.48039 | 117.91255 | 39149 ft | 533 kts | 45° |
| 2026-04-30 06:50 | 24.53030 | 117.97287 | 39142 ft | 533 kts | 45° |
| 2026-04-30 06:50 | 24.58035 | 118.03332 | 39144 ft | 534 kts | 44° |
| 2026-04-30 06:51 | 24.63179 | 118.09213 | 39148 ft | 533 kts | 42° |
| 2026-04-30 06:51 | 24.68396 | 118.15043 | 39149 ft | 534 kts | 43° |
| 2026-04-30 06:52 | 24.73546 | 118.20858 | 39155 ft | 534 kts | 43° |
| 2026-04-30 06:52 | 24.78716 | 118.26743 | 39158 ft | 535 kts | 43° |
| 2026-04-30 06:53 | 24.83889 | 118.32652 | 39164 ft | 535 kts | 43° |
| 2026-04-30 06:53 | 24.89050 | 118.38554 | 39164 ft | 536 kts | 43° |
| 2026-04-30 06:54 | 24.94226 | 118.44478 | 39163 ft | 536 kts | 43° |
| 2026-04-30 06:54 | 24.99372 | 118.50376 | 39168 ft | 537 kts | 43° |
| 2026-04-30 06:55 | 25.04560 | 118.56332 | 39170 ft | 538 kts | 43° |
| 2026-04-30 06:55 | 25.09753 | 118.62299 | 39167 ft | 539 kts | 43° |
| 2026-04-30 06:56 | 25.14863 | 118.68354 | 39162 ft | 540 kts | 45° |
| 2026-04-30 06:56 | 25.19905 | 118.74510 | 39167 ft | 540 kts | 45° |
| 2026-04-30 06:57 | 25.24932 | 118.80631 | 39157 ft | 541 kts | 45° |
| 2026-04-30 06:57 | 25.30001 | 118.86775 | 39169 ft | 541 kts | 44° |
| 2026-04-30 06:58 | 25.35114 | 118.92968 | 39169 ft | 542 kts | 44° |
| 2026-04-30 06:58 | 25.40241 | 118.99006 | 39167 ft | 541 kts | 43° |
| 2026-04-30 06:59 | 25.45450 | 119.05028 | 39175 ft | 542 kts | 43° |
| 2026-04-30 06:59 | 25.50651 | 119.11074 | 39169 ft | 542 kts | 43° |
| 2026-04-30 07:00 | 25.55844 | 119.17148 | 39174 ft | 543 kts | 43° |
| 2026-04-30 07:00 | 25.61044 | 119.23248 | 39176 ft | 543 kts | 43° |
| 2026-04-30 07:01 | 25.66200 | 119.29304 | 39178 ft | 544 kts | 43° |
| 2026-04-30 07:01 | 25.71474 | 119.35299 | 39182 ft | 541 kts | 37° |
| 2026-04-30 07:01 | 25.74475 | 119.37777 | 39190 ft | 534 kts | 26° |
| 2026-04-30 07:02 | 25.77765 | 119.39634 | 39191 ft | 526 kts | 15° |
| 2026-04-30 07:02 | 25.84648 | 119.42228 | 39196 ft | 522 kts | 11° |
| 2026-04-30 07:03 | 25.91620 | 119.44548 | 39203 ft | 522 kts | 10° |
| 2026-04-30 07:03 | 25.98578 | 119.46856 | 39199 ft | 522 kts | 10° |
| 2026-04-30 07:04 | 26.05543 | 119.49208 | 39193 ft | 522 kts | 11° |
| 2026-04-30 07:04 | 26.12459 | 119.51567 | 39193 ft | 523 kts | 11° |
| 2026-04-30 07:05 | 26.22795 | 119.55575 | 39196 ft | 533 kts | 22° |
| 2026-04-30 07:05 | 26.29226 | 119.59786 | 39192 ft | 538 kts | 26° |
| 2026-04-30 07:06 | 26.35566 | 119.64242 | 39197 ft | 539 kts | 27° |
| 2026-04-30 07:06 | 26.41912 | 119.68738 | 39198 ft | 540 kts | 27° |
| 2026-04-30 07:07 | 26.48265 | 119.73215 | 39189 ft | 541 kts | 27° |
| 2026-04-30 07:07 | 26.54627 | 119.77684 | 39192 ft | 541 kts | 27° |
| 2026-04-30 07:08 | 26.60979 | 119.82145 | 39195 ft | 542 kts | 27° |
| 2026-04-30 07:08 | 26.67367 | 119.86638 | 39197 ft | 543 kts | 26° |
| 2026-04-30 07:09 | 26.73771 | 119.91152 | 39193 ft | 543 kts | 26° |
| 2026-04-30 07:09 | 26.80172 | 119.95671 | 39198 ft | 544 kts | 26° |
| 2026-04-30 07:10 | 26.86573 | 120.00194 | 39195 ft | 545 kts | 26° |
| 2026-04-30 07:10 | 26.92994 | 120.04738 | 39197 ft | 545 kts | 26° |
| 2026-04-30 07:11 | 26.99409 | 120.09284 | 39195 ft | 546 kts | 26° |
| 2026-04-30 07:11 | 27.05833 | 120.13842 | 39197 ft | 547 kts | 26° |
| 2026-04-30 07:12 | 27.12223 | 120.18382 | 39198 ft | 547 kts | 26° |
| 2026-04-30 07:12 | 27.18661 | 120.22951 | 39192 ft | 547 kts | 26° |
| 2026-04-30 07:13 | 27.25130 | 120.27506 | 39195 ft | 549 kts | 26° |
| 2026-04-30 07:13 | 27.31607 | 120.32074 | 39194 ft | 550 kts | 26° |
| 2026-04-30 07:14 | 27.38099 | 120.36669 | 39188 ft | 551 kts | 26° |
| 2026-04-30 07:14 | 27.44595 | 120.41292 | 39194 ft | 552 kts | 26° |
| 2026-04-30 07:15 | 27.51088 | 120.45913 | 39198 ft | 552 kts | 26° |
| 2026-04-30 07:15 | 27.57589 | 120.50544 | 39201 ft | 553 kts | 26° |
| 2026-04-30 07:16 | 27.64097 | 120.55188 | 39201 ft | 554 kts | 26° |
| 2026-04-30 07:16 | 27.70613 | 120.59824 | 39194 ft | 553 kts | 24° |
| 2026-04-30 07:17 | 27.77587 | 120.62993 | 39201 ft | 530 kts | 3° |
| 2026-04-30 07:18 | 27.88410 | 120.64402 | 39205 ft | 519 kts | 355° |
| 2026-04-30 07:18 | 27.95547 | 120.65032 | 39203 ft | 519 kts | 355° |
| 2026-04-30 07:19 | 28.02753 | 120.65689 | 39207 ft | 519 kts | 355° |
| 2026-04-30 07:19 | 28.09949 | 120.66377 | 39210 ft | 519 kts | 355° |
| 2026-04-30 07:20 | 28.17156 | 120.67078 | 39212 ft | 519 kts | 355° |
| 2026-04-30 07:20 | 28.24366 | 120.67780 | 39209 ft | 519 kts | 355° |
| 2026-04-30 07:21 | 28.31531 | 120.68482 | 39209 ft | 520 kts | 354° |
| 2026-04-30 07:21 | 28.38788 | 120.69192 | 39208 ft | 522 kts | 354° |
| 2026-04-30 07:22 | 28.49653 | 120.70254 | 39221 ft | 523 kts | 354° |
| 2026-04-30 07:22 | 28.56905 | 120.70962 | 39221 ft | 523 kts | 354° |
| 2026-04-30 07:23 | 28.62929 | 120.71553 | 39217 ft | 522 kts | 354° |
| 2026-04-30 07:23 | 28.70173 | 120.72269 | 39220 ft | 523 kts | 354° |
| 2026-04-30 07:24 | 28.78636 | 120.73181 | 39230 ft | 525 kts | 355° |
| 2026-04-30 07:24 | 28.84681 | 120.73856 | 39223 ft | 524 kts | 354° |
| 2026-04-30 07:25 | 28.91945 | 120.74652 | 39227 ft | 523 kts | 354° |
| 2026-04-30 07:25 | 28.99190 | 120.75388 | 39219 ft | 522 kts | 354° |
| 2026-04-30 07:26 | 29.06430 | 120.76118 | 39228 ft | 522 kts | 353° |
| 2026-04-30 07:26 | 29.13664 | 120.76858 | 39225 ft | 521 kts | 353° |
| 2026-04-30 07:27 | 29.20856 | 120.77602 | 39061 ft | 521 kts | 353° |
| 2026-04-30 07:27 | 29.24463 | 120.77976 | 38844 ft | 521 kts | 353° |
| 2026-04-30 07:27 | 29.28087 | 120.78350 | 38594 ft | 523 kts | 353° |
| 2026-04-30 07:28 | 29.31714 | 120.78723 | 38336 ft | 523 kts | 353° |
| 2026-04-30 07:28 | 29.35350 | 120.79098 | 38074 ft | 523 kts | 353° |
| 2026-04-30 07:28 | 29.38970 | 120.79476 | 37521 ft | 521 kts | 353° |
| 2026-04-30 07:28 | 29.42567 | 120.79853 | 36878 ft | 519 kts | 353° |
| 2026-04-30 07:29 | 29.46118 | 120.80225 | 36214 ft | 519 kts | 353° |
| 2026-04-30 07:29 | 29.49719 | 120.80600 | 35518 ft | 519 kts | 353° |
| 2026-04-30 07:29 | 29.53328 | 120.81024 | 34787 ft | 526 kts | 356° |
| 2026-04-30 07:29 | 29.56948 | 120.82088 | 34011 ft | 550 kts | 10° |
| 2026-04-30 07:30 | 29.63566 | 120.87108 | 32121 ft | 596 kts | 39° |
| 2026-04-30 07:30 | 29.66160 | 120.90884 | 31146 ft | 611 kts | 53° |
| 2026-04-30 07:30 | 29.68342 | 120.95112 | 30216 ft | 616 kts | 56° |
| 2026-04-30 07:31 | 29.70490 | 120.99349 | 29136 ft | 605 kts | 54° |
| 2026-04-30 07:31 | 29.72635 | 121.03393 | 28215 ft | 580 kts | 53° |
| 2026-04-30 07:31 | 29.74766 | 121.07265 | 27475 ft | 567 kts | 52° |
| 2026-04-30 07:31 | 29.76907 | 121.11068 | 26736 ft | 565 kts | 52° |
| 2026-04-30 07:32 | 29.79052 | 121.14846 | 26006 ft | 562 kts | 52° |
| 2026-04-30 07:32 | 29.81152 | 121.18539 | 25357 ft | 558 kts | 52° |
| 2026-04-30 07:32 | 29.83279 | 121.22282 | 24733 ft | 553 kts | 52° |
| 2026-04-30 07:32 | 29.85372 | 121.25958 | 24153 ft | 547 kts | 52° |
| 2026-04-30 07:33 | 29.87439 | 121.29591 | 23596 ft | 539 kts | 52° |
| 2026-04-30 07:33 | 29.89717 | 121.32972 | 22816 ft | 525 kts | 40° |
| 2026-04-30 07:33 | 29.92505 | 121.35560 | 22087 ft | 506 kts | 25° |
| 2026-04-30 07:33 | 29.95561 | 121.37479 | 21416 ft | 494 kts | 19° |
| 2026-04-30 07:34 | 29.98607 | 121.39262 | 20663 ft | 489 kts | 20° |
| 2026-04-30 07:34 | 30.01618 | 121.41057 | 19997 ft | 485 kts | 20° |
| 2026-04-30 07:34 | 30.04592 | 121.42869 | 19394 ft | 479 kts | 21° |
| 2026-04-30 07:34 | 30.07510 | 121.44669 | 18799 ft | 474 kts | 21° |
| 2026-04-30 07:35 | 30.10402 | 121.46466 | 18173 ft | 468 kts | 21° |
| 2026-04-30 07:35 | 30.13252 | 121.48246 | 17535 ft | 462 kts | 22° |
| 2026-04-30 07:35 | 30.16053 | 121.50002 | 16932 ft | 454 kts | 22° |
| 2026-04-30 07:35 | 30.18812 | 121.51733 | 16337 ft | 448 kts | 22° |
| 2026-04-30 07:36 | 30.21528 | 121.53439 | 15746 ft | 441 kts | 22° |
| 2026-04-30 07:36 | 30.24174 | 121.55103 | 15155 ft | 435 kts | 22° |
| 2026-04-30 07:36 | 30.26814 | 121.56771 | 14546 ft | 430 kts | 23° |
| 2026-04-30 07:36 | 30.29413 | 121.58450 | 13908 ft | 426 kts | 24° |
| 2026-04-30 07:37 | 30.31984 | 121.60119 | 13243 ft | 420 kts | 24° |
| 2026-04-30 07:37 | 30.34516 | 121.61763 | 12623 ft | 414 kts | 24° |
| 2026-04-30 07:37 | 30.37005 | 121.63379 | 12008 ft | 407 kts | 24° |
| 2026-04-30 07:37 | 30.39400 | 121.65023 | 11691 ft | 383 kts | 26° |
| 2026-04-30 07:38 | 30.41549 | 121.66568 | 11570 ft | 345 kts | 26° |
| 2026-04-30 07:38 | 30.43497 | 121.67965 | 11407 ft | 314 kts | 25° |
| 2026-04-30 07:38 | 30.45282 | 121.69234 | 11261 ft | 289 kts | 24° |
| 2026-04-30 07:38 | 30.46969 | 121.70420 | 11153 ft | 286 kts | 24° |
| 2026-04-30 07:39 | 30.48683 | 121.71612 | 11014 ft | 287 kts | 24° |
| 2026-04-30 07:39 | 30.50393 | 121.72809 | 10896 ft | 287 kts | 24° |
| 2026-04-30 07:39 | 30.52096 | 121.74003 | 10693 ft | 286 kts | 25° |
| 2026-04-30 07:39 | 30.53826 | 121.75056 | 10493 ft | 277 kts | 15° |
| 2026-04-30 07:40 | 30.55645 | 121.75853 | 9910 ft | 283 kts | 13° |
| 2026-04-30 07:40 | 30.57506 | 121.76586 | 9356 ft | 287 kts | 13° |
| 2026-04-30 07:40 | 30.59399 | 121.77319 | 8916 ft | 286 kts | 13° |
| 2026-04-30 07:40 | 30.61290 | 121.78048 | 8499 ft | 284 kts | 13° |
| 2026-04-30 07:41 | 30.63131 | 121.78757 | 7806 ft | 276 kts | 13° |
| 2026-04-30 07:41 | 30.64934 | 121.79447 | 7247 ft | 264 kts | 14° |
| 2026-04-30 07:41 | 30.66598 | 121.80091 | 7097 ft | 240 kts | 14° |
| 2026-04-30 07:41 | 30.68141 | 121.80684 | 6992 ft | 234 kts | 13° |
| 2026-04-30 07:42 | 30.69697 | 121.81273 | 6814 ft | 235 kts | 13° |
| 2026-04-30 07:42 | 30.71244 | 121.81860 | 6578 ft | 233 kts | 14° |
| 2026-04-30 07:42 | 30.72779 | 121.82445 | 6326 ft | 231 kts | 14° |
| 2026-04-30 07:42 | 30.74311 | 121.82995 | 6067 ft | 229 kts | 11° |
| 2026-04-30 07:43 | 30.75834 | 121.83438 | 5829 ft | 228 kts | 10° |
| 2026-04-30 07:43 | 30.77377 | 121.83875 | 5591 ft | 228 kts | 11° |
| 2026-04-30 07:43 | 30.78922 | 121.84322 | 5351 ft | 228 kts | 11° |
| 2026-04-30 07:43 | 30.80465 | 121.84777 | 5109 ft | 229 kts | 12° |
| 2026-04-30 07:44 | 30.82007 | 121.85237 | 4869 ft | 229 kts | 12° |
| 2026-04-30 07:44 | 30.83553 | 121.85701 | 4616 ft | 229 kts | 12° |
| 2026-04-30 07:44 | 30.85093 | 121.86164 | 4379 ft | 228 kts | 12° |
| 2026-04-30 07:44 | 30.86612 | 121.86620 | 4135 ft | 228 kts | 12° |
| 2026-04-30 07:45 | 30.88144 | 121.87081 | 3913 ft | 227 kts | 12° |
| 2026-04-30 07:45 | 30.89671 | 121.87544 | 3648 ft | 225 kts | 13° |
| 2026-04-30 07:45 | 30.91186 | 121.88001 | 3426 ft | 225 kts | 13° |
| 2026-04-30 07:45 | 30.92697 | 121.88449 | 3177 ft | 223 kts | 12° |
| 2026-04-30 07:46 | 30.94144 | 121.88753 | 2997 ft | 219 kts | 5° |
| 2026-04-30 07:46 | 30.95628 | 121.88826 | 2971 ft | 210 kts | 357° |
| 2026-04-30 07:46 | 30.97014 | 121.88671 | 2970 ft | 194 kts | 347° |
| 2026-04-30 07:46 | 30.98218 | 121.88292 | 2981 ft | 169 kts | 341° |
| 2026-04-30 07:47 | 30.99286 | 121.87909 | 2829 ft | 153 kts | 343° |
| 2026-04-30 07:47 | 31.00262 | 121.87555 | 2621 ft | 142 kts | 341° |
| 2026-04-30 07:47 | 31.01193 | 121.87205 | 2430 ft | 140 kts | 343° |
| 2026-04-30 07:47 | 31.02104 | 121.86877 | 2237 ft | 133 kts | 341° |
| 2026-04-30 07:48 | 31.02962 | 121.86542 | 2062 ft | 128 kts | 341° |
| 2026-04-30 07:48 | 31.03807 | 121.86221 | 1914 ft | 131 kts | 342° |
| 2026-04-30 07:48 | 31.04707 | 121.85879 | 1705 ft | 138 kts | 342° |
| 2026-04-30 07:48 | 31.05621 | 121.85538 | 1512 ft | 139 kts | 342° |
| 2026-04-30 07:49 | 31.06537 | 121.85205 | 1298 ft | 134 kts | 344° |
| 2026-04-30 07:49 | 31.07275 | 121.84919 | 1172 ft | 127 kts | 340° |
| 2026-04-30 07:49 | 31.08109 | 121.84599 | 1013 ft | 126 kts | 342° |
| 2026-04-30 07:49 | 31.08948 | 121.84284 | 828 ft | 129 kts | 342° |
| 2026-04-30 07:50 | 31.09782 | 121.83969 | 650 ft | 130 kts | 343° |
| 2026-04-30 07:50 | 31.10629 | 121.83646 | 505 ft | 129 kts | 343° |
| 2026-04-30 07:50 | 31.11488 | 121.83322 | 315 ft | 128 kts | 343° |
| 2026-04-30 07:50 | 31.12334 | 121.83000 | 154 ft | 128 kts | 345° |
| 2026-04-30 07:51 | 31.13174 | 121.82690 | 34 ft | 123 kts | 345° |
| 2026-04-30 07:51 | 31.13893 | 121.82422 | 28 ft | 89 kts | 342° |
| 2026-04-30 07:51 | 31.14358 | 121.82249 | 29 ft | 59 kts | 341° |
| 2026-04-30 07:51 | 31.14660 | 121.82095 | 26 ft | 42 kts | 323° |
| 2026-04-30 07:52 | 31.14860 | 121.81880 | 27 ft | 31 kts | 316° |
| 2026-04-30 07:52 | 31.14971 | 121.81779 | 28 ft | 16 kts | 296° |
| 2026-04-30 07:52 | 31.14956 | 121.81659 | 28 ft | 16 kts | 252° |
| 2026-04-30 07:52 | 31.14919 | 121.81520 | 28 ft | 19 kts | 253° |
| 2026-04-30 07:53 | 31.14873 | 121.81362 | 29 ft | 21 kts | 250° |
| 2026-04-30 07:53 | 31.14829 | 121.81191 | 29 ft | 23 kts | 251° |
| 2026-04-30 07:53 | 31.14824 | 121.81039 | 29 ft | 16 kts | 322° |
| 2026-04-30 07:53 | 31.14939 | 121.80995 | 29 ft | 19 kts | 344° |
| 2026-04-30 07:54 | 31.15070 | 121.80946 | 29 ft | 21 kts | 341° |
| 2026-04-30 07:54 | 31.15212 | 121.80892 | 29 ft | 22 kts | 342° |
| 2026-04-30 07:54 | 31.15351 | 121.80839 | 29 ft | 16 kts | 342° |
| 2026-04-30 07:54 | 31.15434 | 121.80784 | 29 ft | 9 kts | 285° |
| 2026-04-30 07:55 | 31.15419 | 121.80716 | 29 ft | 0 kts | 251° |